• Join FlightAware (Why Join?)
  • Login
  • US Flag 
05:28PM EST


 

Airport Tracker/Info


-or-


 

Live Flight TrackerFlight Track Log ✈ EJA831 ✈ 23-Apr-2013 ✈ KBTP - KJQF

Flight Track Log - Related Links

Times and Time Zones

All times are in EDT time to prevent confusion due to time zone crossing. See the EJA831 flight status page for this flight to view local times or setup timezone preferences in your user account.

Time Position Orientation Groundspeed Altitude Reporting Facility
EDT Latitude Longitude Course Direction KTS MPH feet Rate Location/Type
10:20AM 40.6239 -79.9292 194° South 285 328 10,400  Level Cleveland Center
10:21AM 40.5344 -79.9519 191° South 305 351 13,200 3,000 Climbing Cleveland Center
10:22AM 40.4428 -79.9747 191° South 328 377 16,400 2,640 Climbing Cleveland Center
10:23AM 40.1181 -80.0500 185° South  Level Estimated
10:23AM 40.3431 -80.0003 191° South 346 398 18,500  Level Cleveland Center
10:24AM 40.0119 -80.0894 196° South  Level FlightAware Approximate
10:24AM 40.2283 -80.0283 191° South 394 453 19,000  Level Cleveland Center
10:25AM 39.9021 -80.1051 194° South  Level Estimated
10:25AM 40.1244 -80.0536 191° South 385 443 19,000  Level Cleveland Center
10:26AM 40.0222 -80.0789 191° South 386 444 19,000 420 Level Cleveland Center
10:27AM 39.9161 -80.1067 191° South 386 444 19,900 1,440 Climbing Cleveland Center
10:29AM 39.6786 -80.1214 183° South 386 444 23,900 1,680 Climbing Washington Center
10:30AM 39.5689 -80.1575 194° South 391 450 25,600 1,800 Climbing Washington Center
10:31AM 39.4589 -80.1964 195° South 402 463 27,600 1,860 Climbing Washington Center
10:32AM 39.3511 -80.2350 195° South 402 463 29,400 1,560 Climbing Washington Center
10:33AM 39.2369 -80.2761 196° South 407 468 30,800 1,200 Climbing Washington Center
10:34AM 39.1231 -80.3089 193° South 412 474 31,900 600 Climbing Washington Center
10:35AM 39.0008 -80.3436 192° South 433 498 32,000  Climbing Washington Center
10:36AM 38.8806 -80.3786 193° South 443 510 32,000  Level Washington Center
10:37AM 38.7603 -80.4133 193° South 443 510 32,000  Level Washington Center
10:38AM 38.6333 -80.4581 195° South 462 532 32,000  Level Washington Center
10:39AM 38.5089 -80.4925 192° South 462 532 32,000  Level Washington Center
10:40AM 38.3803 -80.5289 193° South 462 532 32,000  Level Washington Center
10:41AM 38.2375 -80.5564 189° South 469 540 32,000  Level Washington Center
10:42AM 38.1053 -80.5714 185° South 476 548 32,000 -600 Level Washington Center
10:43AM 37.9794 -80.5922 187° South 470 541 30,800 -1,860 Descending Washington Center
10:44AM 37.8556 -80.6103 187° South 470 541 28,300 -2,520 Descending Washington Center
10:45AM 37.7528 -80.6217 185° South 441 507 25,800 -1,320 Descending Washington Center
10:47AM 37.5044 -80.6542 186° South 392 451 24,000 -540 Descending Atlanta Center
10:48AM 37.3944 -80.6719 187° South 398 458 24,000  Level Atlanta Center
10:49AM 37.2825 -80.6872 186° South 404 465 24,000 -840 Level Atlanta Center
10:50AM 37.1639 -80.7025 186° South 404 465 22,400 -1,800 Descending Atlanta Center
10:51AM 37.0558 -80.7150 185° South 404 465 20,500 -1,920 Descending Atlanta Center
10:52AM 36.9497 -80.7169 181° South 399 459 18,600 -1,260 Descending Atlanta Center
10:53AM 36.8494 -80.7158 179° South 382 440 18,000 -300 Descending Atlanta Center
10:54AM 36.7558 -80.7172 181° South 377 434 18,000  Level Atlanta Center
10:55AM 36.6556 -80.7136 178° South 367 422 18,000 -180 Level Atlanta Center
10:56AM 36.5533 -80.7153 181° South 367 422 17,700 -1,020 Descending Atlanta Center
10:57AM 36.4533 -80.7169 181° South 367 422 16,000 -1,620 Descending Atlanta Center
10:58AM 36.3469 -80.7186 181° South 367 422 14,500 -1,020 Descending Atlanta Center
10:59AM 36.2511 -80.7200 181° South 362 417 14,000 -600 Descending Atlanta Center
11:00AM 36.1553 -80.7189 179° South 357 411 13,300 -960 Descending Atlanta Center
11:01AM 36.0572 -80.7178 179° South 357 411 12,100 -1,320 Descending Atlanta Center
11:02AM 35.9675 -80.7189 181° South 338 389 10,700 -1,680 Descending Atlanta Center
11:02AM 35.9489 -80.7222 188° South 309 356 10,000 -2,880 Descending Atlanta Center
11:03AM 35.9050 -80.7239 182° South 291 335 8,500 -2,820 Descending Atlanta Center
11:04AM 35.8258 -80.7272 182° South 270 311 5,800 -1,740 Descending Atlanta Center
11:05AM 35.7611 -80.7247 178° South 231 266 5,000 -840 Descending Atlanta Center
11:06AM 35.7064 -80.7039 163° South 209 241 4,200 -540 Descending Atlanta Center
11:07AM 35.6611 -80.6494 136° Southeast 222 255 4,000 -120 Descending Atlanta Center
11:08AM 35.6094 -80.5903 137° Southeast 244 281 4,000  Level Atlanta Center
11:09AM 35.5544 -80.5672 161° South 220 253 4,000 -360 Level Atlanta Center
11:10AM 35.5006 -80.5797 191° South 204 235 3,400 -720 Descending Atlanta Center
11:10AM 35.4881 -80.5803 182° South 201 231 3,200 -360 Descending Atlanta Center
11:11AM 35.4406 -80.5950 194° South 207 238 3,000 -120 Descending Atlanta Center
11:12AM 35.3719 -80.6106 190° South 216 249 3,000  Level Atlanta Center
11:13AM 35.3139 -80.6231 190° South 207 238 3,000  Level Atlanta Center
11:14AM 35.2600 -80.6356 191° South 204 235 3,000  Level Atlanta Center
11:15AM 35.2019 -80.6481 190° South 210 242 3,000  Level Atlanta Center
11:16AM 35.1783 -80.6972 240° Southwest 202 232 3,000 -300 Level Atlanta Center
11:17AM 35.2025 -80.7472 301° West 184 212 2,500 -240 Descending Atlanta Center
11:18AM 35.2544 -80.7400 North 163 188 2,500 -180 Level Atlanta Center
11:19AM 35.2983 -80.7331 North 151 174 2,200 -300 Descending Atlanta Center